Time;durP1;ratioP1;P1;durP2;ratioP2;P2;SDS_P1;SDS_P2;PMS_P1;PMS_P2;Temp;Humidity;BMP_temperature;BMP_pressure;BME280_temperature;BME280_humidity;BME280_pressure;Samples;Min_cycle;Max_cycle;Signal;HPM_P1;HPM_P2
2022/06/25 00:02:08;;;;;;;1.80;0.60;;;16.00;99.90;;;;;;5018432;28;20616;-54
2022/06/25 00:07:20;;;;;;;1.23;0.50;;;15.90;99.90;;;;;;5027195;28;20569;-54
2022/06/25 00:09:47;;;;;;;2.73;0.50;;;15.90;99.90;;;;;;5025583;28;20281;-55
2022/06/25 00:12:33;;;;;;;1.90;0.60;;;15.90;99.90;;;;;;5028602;28;20207;-54
2022/06/25 00:15:01;;;;;;;1.00;0.50;;;16.00;99.90;;;;;;5026301;28;20203;-54
2022/06/25 00:17:28;;;;;;;0.67;0.60;;;15.90;99.90;;;;;;5011462;28;20732;-54
2022/06/25 00:19:55;;;;;;;3.33;1.10;;;16.00;99.90;;;;;;5027794;28;20221;-55
2022/06/25 00:22:22;;;;;;;0.73;0.40;;;16.00;99.90;;;;;;5029762;28;20207;-54
2022/06/25 00:24:50;;;;;;;0.80;0.33;;;16.00;99.90;;;;;;5025645;28;20203;-54
2022/06/25 00:27:19;;;;;;;0.97;0.53;;;16.00;99.90;;;;;;5029512;28;20208;-54
2022/06/25 00:29:46;;;;;;;1.27;0.50;;;16.00;99.90;;;;;;5023240;28;20260;-54
2022/06/25 00:32:13;;;;;;;0.40;0.40;;;15.90;99.90;;;;;;5029375;28;20207;-55
2022/06/25 00:34:40;;;;;;;1.53;0.43;;;16.00;99.90;;;;;;5027622;28;20246;-55
2022/06/25 00:37:07;;;;;;;1.23;0.40;;;16.00;99.90;;;;;;5031195;28;20249;-54
2022/06/25 00:39:35;;;;;;;1.33;0.20;;;15.90;99.90;;;;;;5023618;28;20260;-55
2022/06/25 00:42:02;;;;;;;0.63;0.40;;;16.00;99.90;;;;;;5023177;28;20206;-55
2022/06/25 00:44:31;;;;;;;3.30;0.40;;;16.00;99.90;;;;;;5027665;28;20218;-54
2022/06/25 00:46:58;;;;;;;0.30;0.30;;;16.00;99.90;;;;;;5013274;28;20206;-54
2022/06/25 00:49:25;;;;;;;0.57;0.43;;;16.00;99.90;;;;;;5019500;28;20212;-55
2022/06/25 00:51:52;;;;;;;2.47;0.40;;;16.00;99.90;;;;;;5026232;28;20276;-55
2022/06/25 00:54:21;;;;;;;1.03;0.40;;;16.00;99.90;;;;;;5026451;28;20235;-54
2022/06/25 00:56:50;;;;;;;0.33;0.33;;;16.00;99.90;;;;;;5029209;28;20229;-54
2022/06/25 00:59:21;;;;;;;1.40;0.30;;;16.00;99.90;;;;;;5021105;28;20203;-55
2022/06/25 01:01:50;;;;;;;2.77;0.47;;;16.00;99.90;;;;;;5026514;28;20293;-55
2022/06/25 01:04:17;;;;;;;0.40;0.40;;;16.00;99.90;;;;;;5011659;28;20222;-55
2022/06/25 01:06:44;;;;;;;0.30;0.30;;;15.90;99.90;;;;;;5028741;28;20203;-55
2022/06/25 01:09:11;;;;;;;1.97;0.43;;;16.00;99.90;;;;;;5026088;28;20260;-54
2022/06/25 01:11:38;;;;;;;0.30;0.30;;;15.90;99.90;;;;;;5025318;28;20263;-54
2022/06/25 01:14:09;;;;;;;0.30;0.30;;;15.90;99.90;;;;;;5020186;28;20306;-55
2022/06/25 01:16:36;;;;;;;1.07;0.30;;;15.90;99.90;;;;;;5024474;28;20203;-54
2022/06/25 01:19:10;;;;;;;2.83;1.03;;;15.90;99.90;;;;;;5027872;28;20210;-54
2022/06/25 01:21:37;;;;;;;1.63;0.27;;;15.90;99.90;;;;;;5025632;28;20230;-55
2022/06/25 01:24:07;;;;;;;0.30;0.30;;;15.80;99.90;;;;;;5018571;28;20250;-54
2022/06/25 01:26:35;;;;;;;0.50;0.50;;;15.80;99.90;;;;;;5024449;28;20242;-54
2022/06/25 01:29:03;;;;;;;0.40;0.40;;;15.80;99.90;;;;;;5022519;28;20297;-55
2022/06/25 01:31:30;;;;;;;1.40;0.40;;;15.70;99.90;;;;;;5026204;28;20197;-54
2022/06/25 01:33:58;;;;;;;1.17;0.60;;;15.70;99.90;;;;;;5020579;28;20222;-55
2022/06/25 01:36:26;;;;;;;1.50;0.60;;;15.70;99.90;;;;;;5027200;28;20287;-54
2022/06/25 01:38:53;;;;;;;0.43;0.43;;;15.70;99.90;;;;;;5029526;28;20832;-54
2022/06/25 01:41:21;;;;;;;0.87;0.40;;;15.70;99.90;;;;;;5029139;28;20234;-55
2022/06/25 01:43:50;;;;;;;0.43;0.43;;;15.70;99.90;;;;;;5015416;28;20273;-54
2022/06/25 01:46:18;;;;;;;2.47;0.70;;;15.60;99.90;;;;;;5027089;28;20257;-55
2022/06/25 01:48:45;;;;;;;0.93;0.47;;;15.60;99.90;;;;;;5027723;28;20328;-55
2022/06/25 01:51:13;;;;;;;1.63;0.40;;;15.50;99.90;;;;;;5020806;28;20218;-54
2022/06/25 01:53:40;;;;;;;3.17;0.90;;;15.50;99.90;;;;;;5028212;28;20674;-55
2022/06/25 01:56:08;;;;;;;1.47;0.40;;;15.50;99.90;;;;;;5027742;28;20198;-55
2022/06/25 01:58:36;;;;;;;1.40;0.80;;;15.50;99.90;;;;;;5031575;28;20202;-55
2022/06/25 02:01:04;;;;;;;0.40;0.40;;;15.50;99.90;;;;;;5030971;28;20279;-54
2022/06/25 02:03:31;;;;;;;0.30;0.30;;;15.50;99.90;;;;;;5028493;28;20307;-54
2022/06/25 02:05:58;;;;;;;2.00;0.50;;;15.50;99.90;;;;;;5027807;28;20253;-54
2022/06/25 02:08:29;;;;;;;0.53;0.53;;;15.50;99.90;;;;;;5033306;28;20649;-55
2022/06/25 02:10:57;;;;;;;0.57;0.53;;;15.50;99.90;;;;;;5029947;28;20256;-54
2022/06/25 02:13:25;;;;;;;2.03;0.50;;;15.50;99.90;;;;;;5026610;28;20218;-54
2022/06/25 02:15:54;;;;;;;2.10;0.40;;;15.40;99.90;;;;;;5024396;28;20217;-54
2022/06/25 02:18:22;;;;;;;1.33;0.30;;;15.40;99.90;;;;;;5028412;28;20211;-54
2022/06/25 02:20:50;;;;;;;1.40;0.80;;;15.40;99.90;;;;;;5017687;28;20214;-54
2022/06/25 02:23:21;;;;;;;0.50;0.50;;;15.40;99.90;;;;;;5020725;28;20716;-55
2022/06/25 02:25:48;;;;;;;2.50;0.40;;;15.30;99.90;;;;;;5030284;28;20293;-55
2022/06/25 02:28:15;;;;;;;1.07;0.33;;;15.30;99.90;;;;;;5025869;28;20230;-55
2022/06/25 02:30:43;;;;;;;0.60;0.60;;;15.20;99.90;;;;;;5029158;28;20256;-55
2022/06/25 02:33:12;;;;;;;1.20;0.73;;;15.20;99.90;;;;;;5027782;28;20227;-55
2022/06/25 02:35:41;;;;;;;0.40;0.40;;;15.20;99.90;;;;;;5025642;28;20249;-54
2022/06/25 02:38:09;;;;;;;0.97;0.43;;;15.20;99.90;;;;;;5030824;28;20740;-55
2022/06/25 02:40:36;;;;;;;0.30;0.30;;;15.20;99.90;;;;;;5033533;28;20299;-55
2022/06/25 02:43:05;;;;;;;4.33;0.50;;;15.20;99.90;;;;;;5026319;28;20226;-55
2022/06/25 02:45:32;;;;;;;0.50;0.50;;;15.20;99.90;;;;;;5028542;28;20285;-54
2022/06/25 02:47:59;;;;;;;0.40;0.40;;;15.20;99.90;;;;;;5018381;28;20203;-54
2022/06/25 02:50:28;;;;;;;2.87;0.50;;;15.20;99.90;;;;;;5031636;28;20198;-54
2022/06/25 02:52:54;;;;;;;2.00;0.60;;;15.10;99.90;;;;;;5021318;28;20292;-55
2022/06/25 02:58:54;;;;;;;1.43;0.73;;;15.10;99.90;;;;;;5017058;28;20740;-55
2022/06/25 03:00:55;;;;;;;2.47;0.50;;;15.10;99.90;;;;;;5021034;28;20300;-54
2022/06/25 03:03:22;;;;;;;2.37;0.90;;;15.10;99.90;;;;;;5017241;28;20223;-54
2022/06/25 03:05:50;;;;;;;1.00;0.80;;;15.10;99.90;;;;;;5015753;28;20199;-54
2022/06/25 03:08:18;;;;;;;0.63;0.63;;;15.10;99.90;;;;;;5025074;28;20206;-54
2022/06/25 03:10:45;;;;;;;0.63;0.63;;;15.00;99.90;;;;;;5023981;28;20221;-54
2022/06/25 03:13:12;;;;;;;1.53;0.60;;;15.00;99.90;;;;;;5024224;28;20681;-54
2022/06/25 03:15:39;;;;;;;1.23;0.80;;;15.00;99.90;;;;;;5023880;28;20253;-55
2022/06/25 03:18:06;;;;;;;2.47;0.60;;;15.00;99.90;;;;;;5024544;28;20256;-54
2022/06/25 03:20:34;;;;;;;0.47;0.47;;;15.00;99.90;;;;;;5021138;28;20222;-54
2022/06/25 03:23:02;;;;;;;1.80;0.70;;;14.90;99.90;;;;;;5015700;28;20855;-55
2022/06/25 03:25:29;;;;;;;0.67;0.67;;;14.90;99.90;;;;;;5019076;28;20293;-54
2022/06/25 03:27:57;;;;;;;1.40;0.60;;;14.90;99.90;;;;;;5019766;28;20272;-54
2022/06/25 03:30:24;;;;;;;1.10;0.53;;;14.90;99.90;;;;;;5023966;28;20195;-55
2022/06/25 03:32:51;;;;;;;0.73;0.70;;;14.90;99.90;;;;;;5015990;28;20231;-54
2022/06/25 03:35:18;;;;;;;1.90;0.63;;;14.90;99.90;;;;;;5020641;28;20248;-54
2022/06/25 03:37:45;;;;;;;0.50;0.50;;;14.90;99.90;;;;;;5025963;28;20730;-54
2022/06/25 03:40:14;;;;;;;0.30;0.30;;;14.90;99.90;;;;;;5023444;28;20226;-54
2022/06/25 03:42:41;;;;;;;0.40;0.40;;;14.90;99.90;;;;;;5021679;28;20249;-54
2022/06/25 03:45:09;;;;;;;0.77;0.30;;;14.90;99.90;;;;;;5019404;28;20241;-54
2022/06/25 03:47:36;;;;;;;1.17;1.07;;;14.90;99.90;;;;;;5025494;28;20206;-54
2022/06/25 03:50:04;;;;;;;1.73;0.40;;;14.90;99.90;;;;;;5021019;28;20200;-54
2022/06/25 03:52:31;;;;;;;0.57;0.40;;;14.90;99.90;;;;;;5017314;28;20671;-54
2022/06/25 03:54:58;;;;;;;0.40;0.40;;;14.90;99.90;;;;;;5022630;28;20284;-55
2022/06/25 03:57:27;;;;;;;1.83;0.40;;;14.90;99.90;;;;;;5028364;28;20199;-54
2022/06/25 03:59:54;;;;;;;1.13;0.30;;;14.90;99.90;;;;;;5019413;28;20293;-54
2022/06/25 04:02:21;;;;;;;1.50;0.50;;;14.90;99.90;;;;;;5021228;28;20215;-54
2022/06/25 04:04:48;;;;;;;3.30;0.67;;;14.90;99.90;;;;;;5024799;28;20774;-54
2022/06/25 04:07:15;;;;;;;0.40;0.40;;;14.90;99.90;;;;;;5018275;28;20199;-54
2022/06/25 04:09:42;;;;;;;0.43;0.43;;;15.00;99.90;;;;;;5022095;28;20289;-54
2022/06/25 04:12:09;;;;;;;1.60;0.40;;;15.00;99.90;;;;;;5023447;28;20296;-54
2022/06/25 04:14:38;;;;;;;0.60;0.20;;;15.00;99.90;;;;;;5022612;28;20218;-54
2022/06/25 04:17:06;;;;;;;0.40;0.40;;;15.00;99.90;;;;;;5021098;28;20635;-54
2022/06/25 04:19:39;;;;;;;0.20;0.20;;;15.00;99.90;;;;;;5022342;28;20810;-54
2022/06/25 04:22:07;;;;;;;2.17;0.47;;;15.10;99.90;;;;;;5019834;28;20705;-54
2022/06/25 04:24:34;;;;;;;1.00;0.37;;;15.10;99.90;;;;;;5021638;28;20218;-54
2022/06/25 04:27:01;;;;;;;0.43;0.30;;;15.10;99.90;;;;;;5020906;28;20277;-54
2022/06/25 04:29:27;;;;;;;2.33;0.50;;;15.20;99.90;;;;;;5021165;28;20257;-54
2022/06/25 04:31:55;;;;;;;3.60;0.43;;;15.20;99.90;;;;;;5021577;28;20194;-54
2022/06/25 04:34:22;;;;;;;1.27;0.30;;;15.30;99.90;;;;;;5016603;28;20230;-54
2022/06/25 04:36:50;;;;;;;1.80;0.40;;;15.40;99.90;;;;;;5026252;28;20233;-54
2022/06/25 04:39:17;;;;;;;0.87;0.50;;;15.40;99.90;;;;;;5017048;28;20258;-54
2022/06/25 04:41:45;;;;;;;0.50;0.30;;;15.50;99.90;;;;;;5010912;28;20211;-54
2022/06/25 04:44:12;;;;;;;0.50;0.40;;;15.50;99.90;;;;;;5026165;28;20223;-54
2022/06/25 04:46:39;;;;;;;1.03;0.30;;;15.60;99.90;;;;;;5023810;28;20210;-55
2022/06/25 04:49:08;;;;;;;1.20;0.50;;;15.70;99.90;;;;;;5026272;28;20997;-54
2022/06/25 04:51:35;;;;;;;0.40;0.40;;;15.70;99.90;;;;;;5020956;28;20194;-54
2022/06/25 04:54:03;;;;;;;0.20;0.20;;;15.90;99.90;;;;;;5024205;28;20238;-54
2022/06/25 04:56:31;;;;;;;2.67;0.40;;;15.90;99.90;;;;;;5026975;28;20272;-54
2022/06/25 04:58:58;;;;;;;1.97;0.23;;;16.10;99.90;;;;;;5020967;28;20256;-54
2022/06/25 05:01:26;;;;;;;0.60;0.30;;;16.10;99.90;;;;;;5024296;28;20668;-54
2022/06/25 05:03:52;;;;;;;0.40;0.40;;;16.30;99.90;;;;;;5027817;28;20340;-54
2022/06/25 05:06:21;;;;;;;0.73;0.30;;;16.50;99.90;;;;;;5031311;28;20198;-54
2022/06/25 05:08:48;;;;;;;0.27;0.27;;;16.80;99.90;;;;;;5031494;28;20310;-54
2022/06/25 05:11:15;;;;;;;1.07;0.40;;;17.00;99.90;;;;;;5030775;28;20238;-54
2022/06/25 05:13:42;;;;;;;2.07;0.50;;;17.40;99.90;;;;;;5021270;28;20227;-54
2022/06/25 05:16:09;;;;;;;1.87;0.50;;;18.20;99.90;;;;;;5027685;28;20279;-54
2022/06/25 05:18:36;;;;;;;1.10;0.37;;;19.10;99.90;;;;;;5024504;28;20203;-54
2022/06/25 05:21:03;;;;;;;0.33;0.30;;;19.70;99.90;;;;;;5017086;28;20309;-54
2022/06/25 05:23:31;;;;;;;0.93;0.40;;;20.80;99.90;;;;;;5021305;28;20219;-54
2022/06/25 05:25:58;;;;;;;0.30;0.30;;;21.10;99.90;;;;;;5016734;28;20202;-55
2022/06/25 05:28:25;;;;;;;0.20;0.20;;;21.80;99.90;;;;;;5024410;28;20210;-55
2022/06/25 05:30:53;;;;;;;0.20;0.20;;;22.60;99.90;;;;;;5027382;28;20237;-55
2022/06/25 05:33:22;;;;;;;0.40;0.40;;;23.40;99.90;;;;;;5024908;28;20219;-55
2022/06/25 05:35:49;;;;;;;0.20;0.20;;;23.30;99.90;;;;;;5025022;28;20221;-55
2022/06/25 05:38:15;;;;;;;0.50;0.20;;;23.90;99.90;;;;;;5022505;28;20213;-55
2022/06/25 05:40:44;;;;;;;2.00;0.40;;;23.50;99.90;;;;;;5018398;28;20226;-55
2022/06/25 05:43:12;;;;;;;1.17;0.30;;;24.60;99.90;;;;;;5017201;28;20277;-55
2022/06/25 05:45:39;;;;;;;0.63;0.30;;;24.90;99.90;;;;;;5020662;28;20238;-55
2022/06/25 05:48:07;;;;;;;0.17;0.17;;;25.50;99.90;;;;;;5023552;28;20256;-55
2022/06/25 05:50:34;;;;;;;2.40;0.30;;;25.70;99.90;;;;;;5023100;28;20205;-55
2022/06/25 05:53:01;;;;;;;4.40;0.20;;;25.90;99.90;;;;;;5022453;28;20653;-55
2022/06/25 05:55:28;;;;;;;0.50;0.20;;;25.60;99.90;;;;;;5028127;28;20748;-55
2022/06/25 05:57:56;;;;;;;0.10;0.10;;;25.70;99.90;;;;;;5021622;28;20252;-55
2022/06/25 06:00:23;;;;;;;0.33;0.20;;;25.90;99.90;;;;;;5019249;28;20645;-55
2022/06/25 06:02:50;;;;;;;0.20;0.20;;;26.00;99.90;;;;;;5018895;28;20281;-55
2022/06/25 06:05:17;;;;;;;0.43;0.30;;;26.10;99.90;;;;;;5026039;28;20719;-55
2022/06/25 06:07:44;;;;;;;0.73;0.10;;;25.90;99.90;;;;;;5019836;28;20727;-55
2022/06/25 06:10:11;;;;;;;0.83;0.37;;;25.30;99.90;;;;;;5037081;22;20318;-49
2022/06/25 06:12:38;;;;;;;0.30;0.20;;;25.60;99.90;;;;;;5004739;28;20207;-50
2022/06/25 06:15:08;;;;;;;0.20;0.20;;;25.00;99.90;;;;;;5005726;28;20199;-50
2022/06/25 06:17:35;;;;;;;0.40;0.20;;;25.60;99.90;;;;;;5008373;28;20688;-50
2022/06/25 06:20:02;;;;;;;0.30;0.30;;;26.00;99.90;;;;;;5005011;28;20227;-49
2022/06/25 06:22:29;;;;;;;0.23;0.23;;;26.00;99.90;;;;;;5006938;28;20223;-50
2022/06/25 06:24:56;;;;;;;0.40;0.40;;;26.40;99.90;;;;;;5011022;28;20625;-51
2022/06/25 06:27:23;;;;;;;0.20;0.20;;;26.90;99.90;;;;;;5010729;28;20643;-50
2022/06/25 06:29:50;;;;;;;1.52;0.80;;;27.60;99.90;;;;;;5011232;28;20227;-50
2022/06/25 06:32:19;;;;;;;2.15;1.52;;;27.40;99.90;;;;;;5010341;28;20249;-50
2022/06/25 06:34:46;;;;;;;1.23;0.30;;;27.40;99.90;;;;;;5009330;28;20273;-50
2022/06/25 06:37:13;;;;;;;0.28;0.28;;;28.00;99.90;;;;;;5010074;28;20203;-50
2022/06/25 06:39:40;;;;;;;0.55;0.10;;;28.00;99.90;;;;;;5007961;28;20231;-50
2022/06/25 06:42:08;;;;;;;0.50;0.20;;;28.50;99.90;;;;;;5008916;28;20235;-50
2022/06/25 06:44:35;;;;;;;0.10;0.10;;;28.70;99.90;;;;;;5012422;28;20206;-50
2022/06/25 06:47:02;;;;;;;0.10;0.10;;;28.30;99.90;;;;;;5012766;28;20716;-50
2022/06/25 06:49:30;;;;;;;1.17;0.10;;;28.40;99.90;;;;;;5011228;28;20795;-50
2022/06/25 06:51:57;;;;;;;0.10;0.10;;;28.00;99.90;;;;;;5010796;28;20195;-50
2022/06/25 06:54:24;;;;;;;0.43;0.20;;;28.40;99.90;;;;;;5013199;28;20308;-50
2022/06/25 06:56:53;;;;;;;0.15;0.10;;;27.60;99.90;;;;;;5013094;28;20238;-50
2022/06/25 06:59:19;;;;;;;0.10;0.10;;;27.60;99.90;;;;;;5012415;28;21013;-50
2022/06/25 07:01:46;;;;;;;0.43;0.10;;;27.90;99.90;;;;;;5018267;28;20265;-50
2022/06/25 07:04:14;;;;;;;0.20;0.20;;;27.90;99.90;;;;;;5014230;28;20246;-50
2022/06/25 07:06:42;;;;;;;0.35;0.20;;;28.30;99.90;;;;;;5014415;28;20207;-50
2022/06/25 07:09:09;;;;;;;0.88;0.20;;;29.10;99.90;;;;;;5013962;28;20311;-50
2022/06/25 07:11:36;;;;;;;1.40;0.17;;;29.10;99.90;;;;;;5013016;28;20199;-50
2022/06/25 07:14:05;;;;;;;0.10;0.10;;;29.70;99.90;;;;;;5014150;28;20335;-50
2022/06/25 07:16:32;;;;;;;0.20;0.10;;;29.50;99.90;;;;;;5013576;28;20210;-50
2022/06/25 07:19:01;;;;;;;2.17;0.20;;;29.40;99.90;;;;;;5012506;28;20215;-50
2022/06/25 07:21:29;;;;;;;0.10;0.10;;;28.70;99.90;;;;;;5012758;28;20242;-50
2022/06/25 07:23:58;;;;;;;0.10;0.10;;;29.60;99.90;;;;;;5011676;28;20709;-50
2022/06/25 07:26:25;;;;;;;1.80;0.25;;;28.80;99.90;;;;;;5013618;28;20203;-50
2022/06/25 07:28:54;;;;;;;0.20;0.20;;;28.80;99.90;;;;;;5012940;28;20227;-51
2022/06/25 07:31:21;;;;;;;0.10;0.10;;;28.90;99.90;;;;;;5012813;28;20275;-51
2022/06/25 07:33:48;;;;;;;0.20;0.20;;;29.30;99.90;;;;;;5013317;28;20203;-51
2022/06/25 07:36:15;;;;;;;0.20;0.20;;;29.60;99.90;;;;;;5013406;28;20204;-51
2022/06/25 07:38:43;;;;;;;1.58;0.20;;;30.10;99.90;;;;;;5009426;28;20222;-51
2022/06/25 07:41:11;;;;;;;3.45;0.20;;;30.50;99.90;;;;;;5011589;28;20199;-51
2022/06/25 07:43:38;;;;;;;0.63;0.20;;;30.60;99.90;;;;;;5012639;28;20223;-51
2022/06/25 07:46:05;;;;;;;0.13;0.13;;;30.50;99.90;;;;;;5010846;28;20234;-51
2022/06/25 07:48:32;;;;;;;0.20;0.20;;;30.10;99.50;;;;;;5005188;28;20245;-51
2022/06/25 07:53:43;;;;;;;0.40;0.15;;;30.70;99.90;;;;;;5003668;28;20580;-50
2022/06/25 07:56:12;;;;;;;0.10;0.10;;;30.20;99.90;;;;;;5000409;28;20207;-50
2022/06/25 07:58:39;;;;;;;0.80;0.20;;;30.20;99.90;;;;;;5002876;28;20219;-50
2022/06/25 08:01:06;;;;;;;0.10;0.10;;;30.10;99.40;;;;;;5000954;28;20204;-50
2022/06/25 08:03:33;;;;;;;0.20;0.20;;;30.40;99.90;;;;;;5004883;28;20269;-51
2022/06/25 08:06:00;;;;;;;0.13;0.13;;;31.00;99.90;;;;;;5015428;28;20190;-51
2022/06/25 08:08:27;;;;;;;1.38;0.20;;;31.00;99.30;;;;;;5017396;28;20586;-51
2022/06/25 08:10:55;;;;;;;0.10;0.10;;;30.70;98.60;;;;;;5013434;28;20199;-51
2022/06/25 08:13:23;;;;;;;0.80;0.20;;;30.60;99.00;;;;;;5018692;28;20199;-51
2022/06/25 08:15:51;;;;;;;0.20;0.20;;;29.70;99.70;;;;;;5017760;28;20281;-51
2022/06/25 08:18:19;;;;;;;0.10;0.10;;;30.20;98.80;;;;;;5009940;28;20231;-51
2022/06/25 08:20:46;;;;;;;0.17;0.15;;;30.50;97.70;;;;;;5004999;28;20199;-51
2022/06/25 08:23:13;;;;;;;0.10;0.10;;;30.80;99.20;;;;;;5013930;28;20290;-51
2022/06/25 08:25:40;;;;;;;0.10;0.10;;;31.00;98.90;;;;;;5012491;28;20281;-50
2022/06/25 08:28:12;;;;;;;0.47;0.20;;;30.80;97.70;;;;;;5007345;28;20697;-51
2022/06/25 08:30:42;;;;;;;0.10;0.10;;;30.60;97.80;;;;;;5004682;28;20206;-51
2022/06/25 08:33:10;;;;;;;1.10;0.10;;;30.90;99.30;;;;;;5003509;28;20207;-51
2022/06/25 08:35:37;;;;;;;0.32;0.10;;;31.40;98.40;;;;;;5012395;28;20199;-51
2022/06/25 08:38:04;;;;;;;0.13;0.13;;;31.50;97.10;;;;;;5010232;28;20224;-51
2022/06/25 08:40:31;;;;;;;0.10;0.10;;;32.10;97.30;;;;;;5011998;28;20226;-50
2022/06/25 08:42:58;;;;;;;0.10;0.10;;;31.80;96.40;;;;;;5020143;28;20214;-51
2022/06/25 08:45:25;;;;;;;0.20;0.20;;;31.60;96.10;;;;;;5012789;28;20203;-51
2022/06/25 08:47:53;;;;;;;0.20;0.20;;;31.60;96.00;;;;;;5010208;28;20222;-51
2022/06/25 08:50:22;;;;;;;0.10;0.10;;;31.20;97.40;;;;;;5011877;28;20637;-51
2022/06/25 08:52:51;;;;;;;0.20;0.20;;;31.40;98.00;;;;;;5010808;28;20720;-51
2022/06/25 08:55:27;;;;;;;0.50;0.20;;;31.90;95.00;;;;;;5015266;28;20210;-51
2022/06/25 08:57:54;;;;;;;1.10;0.20;;;32.10;97.30;;;;;;5012488;28;20253;-52
2022/06/25 09:00:22;;;;;;;0.93;0.20;;;31.50;97.10;;;;;;5004588;28;20226;-51
2022/06/25 09:02:49;;;;;;;0.20;0.20;;;32.00;98.20;;;;;;5007230;28;20727;-51
2022/06/25 09:05:17;;;;;;;0.25;0.20;;;32.10;96.00;;;;;;5018628;28;20334;-51
2022/06/25 09:07:54;;;;;;;0.28;0.20;;;32.20;96.90;;;;;;4994470;28;20448;-51
2022/06/25 09:10:22;;;;;;;2.75;0.28;;;32.00;96.60;;;;;;5007051;28;20234;-52
2022/06/25 09:12:53;;;;;;;1.08;0.10;;;32.30;96.30;;;;;;5011103;28;20191;-52
2022/06/25 09:15:21;;;;;;;0.10;0.10;;;32.70;95.10;;;;;;5008165;28;20731;-52
2022/06/25 09:17:49;;;;;;;1.20;0.20;;;32.10;96.10;;;;;;5011012;28;20249;-52
2022/06/25 09:20:19;;;;;;;0.22;0.22;;;32.20;93.80;;;;;;5010279;28;20219;-52
2022/06/25 09:22:57;;;;;;;0.35;0.20;;;32.70;95.90;;;;;;5008156;28;20319;-52
2022/06/25 09:25:26;;;;;;;0.20;0.20;;;32.70;95.30;;;;;;5010514;28;20585;-51
2022/06/25 09:27:53;;;;;;;0.28;0.28;;;33.00;92.80;;;;;;5010886;28;20219;-52
2022/06/25 09:30:21;;;;;;;0.25;0.25;;;33.30;90.60;;;;;;5009456;28;20281;-52
2022/06/25 09:32:50;;;;;;;0.20;0.20;;;32.50;94.40;;;;;;5010894;28;20689;-51
2022/06/25 09:35:34;;;;;;;1.13;0.20;;;31.90;93.90;;;;;;5006021;28;20207;-52
2022/06/25 09:38:03;;;;;;;0.20;0.20;;;31.70;96.30;;;;;;5010206;28;20199;-52
2022/06/25 09:40:31;;;;;;;0.50;0.30;;;32.20;95.50;;;;;;5011077;28;20223;-52
2022/06/25 09:42:58;;;;;;;0.38;0.20;;;31.80;93.80;;;;;;5007504;28;20219;-52
2022/06/25 09:45:25;;;;;;;0.28;0.28;;;32.20;92.00;;;;;;5007629;28;20720;-52
2022/06/25 09:47:56;;;;;;;0.20;0.20;;;31.60;93.60;;;;;;5009109;28;20282;-51
2022/06/25 09:50:24;;;;;;;0.52;0.10;;;31.20;91.70;;;;;;5000463;28;20238;-51
2022/06/25 09:52:57;;;;;;;0.95;0.93;;;31.50;94.00;;;;;;5006218;28;20681;-52
2022/06/25 09:55:26;;;;;;;0.10;0.10;;;32.30;92.00;;;;;;5008045;28;20211;-52
2022/06/25 09:57:53;;;;;;;0.20;0.20;;;32.20;92.50;;;;;;5009253;28;20661;-52
2022/06/25 10:00:22;;;;;;;0.40;0.20;;;32.40;89.10;;;;;;5008853;28;20223;-52
2022/06/25 10:02:50;;;;;;;0.30;0.30;;;32.20;94.30;;;;;;5010110;28;20227;-52
2022/06/25 10:05:18;;;;;;;0.30;0.10;;;31.70;91.00;;;;;;5008535;28;20292;-52
2022/06/25 10:08:01;;;;;;;1.17;0.13;;;31.70;92.40;;;;;;5010451;28;20203;-51
2022/06/25 10:10:32;;;;;;;0.10;0.10;;;30.90;93.70;;;;;;5009658;28;20231;-50
2022/06/25 10:12:59;;;;;;;0.20;0.10;;;30.40;93.90;;;;;;5008021;28;20218;-51
2022/06/25 10:15:26;;;;;;;1.08;0.20;;;30.60;94.90;;;;;;5010835;28;20203;-51
2022/06/25 10:17:53;;;;;;;0.20;0.20;;;30.80;93.60;;;;;;5009796;28;20241;-51
2022/06/25 10:20:21;;;;;;;0.20;0.20;;;30.60;95.40;;;;;;5014298;28;20576;-51
2022/06/25 10:22:51;;;;;;;0.17;0.17;;;30.80;95.60;;;;;;5011100;28;20297;-51
2022/06/25 10:25:21;;;;;;;0.45;0.20;;;31.10;92.20;;;;;;5011931;28;20199;-51
2022/06/25 10:27:50;;;;;;;1.35;0.10;;;31.50;93.30;;;;;;5008643;28;20337;-51
2022/06/25 10:30:36;;;;;;;0.20;0.20;;;31.30;91.90;;;;;;5004807;28;20254;-51
2022/06/25 10:33:04;;;;;;;0.22;0.10;;;30.80;93.90;;;;;;5004798;28;20207;-51
2022/06/25 10:35:33;;;;;;;0.20;0.20;;;30.40;94.20;;;;;;5004958;28;20641;-51
2022/06/25 10:38:04;;;;;;;0.20;0.20;;;30.20;93.50;;;;;;5006133;28;20281;-51
2022/06/25 10:40:32;;;;;;;0.85;0.10;;;30.70;94.60;;;;;;5004352;28;20738;-51
2022/06/25 10:43:02;;;;;;;0.10;0.10;;;30.40;93.90;;;;;;5007920;28;20227;-51
2022/06/25 10:45:47;;;;;;;0.50;0.20;;;30.00;97.40;;;;;;5007970;28;20195;-51
2022/06/25 10:48:15;;;;;;;0.20;0.20;;;30.20;94.40;;;;;;5012349;28;20729;-51
2022/06/25 10:50:49;;;;;;;0.20;0.13;;;30.50;95.60;;;;;;5005253;28;20257;-51
2022/06/25 10:53:20;;;;;;;0.10;0.10;;;30.30;94.50;;;;;;5002817;28;20202;-51
2022/06/25 10:56:16;;;;;;;0.20;0.20;;;30.20;92.80;;;;;;5004905;28;20199;-51
2022/06/25 10:58:48;;;;;;;0.30;0.20;;;29.50;93.90;;;;;;4966954;28;20227;-51
2022/06/25 11:01:32;;;;;;;0.10;0.10;;;29.10;95.90;;;;;;5006364;28;20195;-50
2022/06/25 11:04:03;;;;;;;0.20;0.20;;;29.10;96.00;;;;;;5004922;28;20600;-50
2022/06/25 11:06:34;;;;;;;0.20;0.20;;;29.30;97.00;;;;;;5009970;28;20682;-50
2022/06/25 11:09:08;;;;;;;0.10;0.10;;;29.10;95.50;;;;;;5007753;28;20238;-50
2022/06/25 11:11:37;;;;;;;1.00;0.10;;;28.80;96.10;;;;;;5003640;28;20245;-50
2022/06/25 11:14:12;;;;;;;0.75;0.35;;;28.20;94.90;;;;;;5004992;28;20195;-50
2022/06/25 11:16:39;;;;;;;1.98;0.20;;;27.50;96.10;;;;;;5009751;28;20224;-50
2022/06/25 11:19:06;;;;;;;0.10;0.10;;;27.30;96.10;;;;;;5003628;28;20227;-50
2022/06/25 11:21:35;;;;;;;0.20;0.20;;;26.80;95.80;;;;;;5003417;28;20258;-50
2022/06/25 11:24:12;;;;;;;0.20;0.20;;;26.90;95.00;;;;;;5004240;28;20234;-50
2022/06/25 11:29:27;;;;;;;0.20;0.20;;;26.80;98.30;;;;;;5009003;28;20753;-50
2022/06/25 11:31:56;;;;;;;1.00;0.30;;;27.10;96.90;;;;;;5009016;28;20211;-50
2022/06/25 11:34:25;;;;;;;0.20;0.20;;;27.10;96.90;;;;;;5004797;28;20807;-50
2022/06/25 11:37:04;;;;;;;0.47;0.20;;;27.10;99.10;;;;;;5007405;28;20205;-50
2022/06/25 11:39:33;;;;;;;0.20;0.20;;;27.10;99.00;;;;;;5012832;28;20281;-51
2022/06/25 11:42:00;;;;;;;0.60;0.60;;;27.00;99.90;;;;;;5013118;28;20222;-50
2022/06/25 11:44:28;;;;;;;0.20;0.20;;;26.80;99.90;;;;;;5012326;28;20306;-50
2022/06/25 11:46:56;;;;;;;0.30;0.30;;;26.80;99.90;;;;;;5010383;28;20666;-51
2022/06/25 11:49:24;;;;;;;0.30;0.30;;;26.50;98.60;;;;;;5011796;28;20227;-50
2022/06/25 11:51:55;;;;;;;0.30;0.30;;;26.30;99.90;;;;;;5007678;28;20242;-50
2022/06/25 11:54:24;;;;;;;0.20;0.20;;;26.40;99.90;;;;;;5012817;28;20195;-50
2022/06/25 11:56:55;;;;;;;0.40;0.40;;;26.20;99.10;;;;;;5005952;28;20203;-51
2022/06/25 11:59:27;;;;;;;0.30;0.20;;;26.20;99.90;;;;;;5002419;28;20219;-50
2022/06/25 12:01:54;;;;;;;2.77;0.30;;;26.30;99.90;;;;;;5000149;28;20222;-50
2022/06/25 12:04:22;;;;;;;0.30;0.30;;;26.50;99.30;;;;;;5001349;28;20215;-50
2022/06/25 12:06:49;;;;;;;0.80;0.30;;;26.60;99.90;;;;;;5003038;28;20744;-50
2022/06/25 12:09:18;;;;;;;0.20;0.20;;;26.70;99.90;;;;;;5007775;28;20234;-50
2022/06/25 12:11:52;;;;;;;0.20;0.20;;;26.40;98.40;;;;;;5006358;28;20265;-50
2022/06/25 12:14:28;;;;;;;1.03;0.20;;;26.30;99.90;;;;;;5002848;28;20277;-50
2022/06/25 12:16:55;;;;;;;0.20;0.20;;;26.30;99.50;;;;;;5007205;28;20285;-50
2022/06/25 12:19:23;;;;;;;0.20;0.20;;;26.40;99.90;;;;;;5002300;28;20265;-50
2022/06/25 12:21:50;;;;;;;0.20;0.20;;;26.40;99.90;;;;;;5002999;28;20639;-50
2022/06/25 12:24:19;;;;;;;0.20;0.20;;;26.30;99.90;;;;;;5006348;28;20223;-50
2022/06/25 12:26:55;;;;;;;1.07;0.20;;;26.30;99.90;;;;;;5006539;28;20626;-50
2022/06/25 12:29:25;;;;;;;1.40;0.20;;;26.20;99.90;;;;;;5032984;22;20696;-56
2022/06/25 12:31:56;;;;;;;0.30;0.30;;;26.30;99.90;;;;;;5017369;28;20258;-55
2022/06/25 12:34:24;;;;;;;0.17;0.17;;;26.30;99.90;;;;;;5018128;28;20593;-56
2022/06/25 12:36:52;;;;;;;0.20;0.20;;;26.40;99.90;;;;;;5019049;28;20202;-56
2022/06/25 12:39:36;;;;;;;0.20;0.20;;;26.30;98.80;;;;;;5026143;28;20207;-55
2022/06/25 12:42:09;;;;;;;0.30;0.30;;;26.00;99.30;;;;;;5019110;28;20260;-56
2022/06/25 12:44:40;;;;;;;0.45;0.17;;;25.90;98.50;;;;;;5020911;28;20300;-56
2022/06/25 12:47:09;;;;;;;1.50;0.30;;;26.10;99.90;;;;;;5026346;28;20210;-56
2022/06/25 12:49:50;;;;;;;0.30;0.20;;;26.00;99.90;;;;;;5019668;28;20226;-56
2022/06/25 12:52:20;;;;;;;0.93;0.30;;;26.10;99.60;;;;;;5018168;28;20229;-56
2022/06/25 12:54:50;;;;;;;0.63;0.20;;;26.20;99.90;;;;;;5020317;28;20653;-55
2022/06/25 12:57:22;;;;;;;0.47;0.30;;;26.00;98.60;;;;;;5020425;28;20231;-56
2022/06/25 12:59:51;;;;;;;0.47;0.17;;;25.80;99.90;;;;;;5019020;28;20250;-56
2022/06/25 13:02:18;;;;;;;0.23;0.20;;;25.90;99.90;;;;;;5020342;28;20720;-56
2022/06/25 13:04:45;;;;;;;0.13;0.13;;;26.00;99.90;;;;;;5022114;28;20218;-56
2022/06/25 13:07:13;;;;;;;0.20;0.20;;;26.00;99.60;;;;;;5019366;28;20285;-57